Time;durP1;ratioP1;P1;durP2;ratioP2;P2;SDS_P1;SDS_P2;PMS_P1;PMS_P2;Temp;Humidity;BMP_temperature;BMP_pressure;BME280_temperature;BME280_humidity;BME280_pressure;Samples;Min_cycle;Max_cycle;Signal;HPM_P1;HPM_P2
2023/08/25 00:00:50;;;;;;;46.25;32.40;;;18.40;99.90;;;;;;5041876;28;20106;-74
2023/08/25 00:03:16;;;;;;;45.95;31.45;;;18.40;99.90;;;;;;5034484;28;20040;-75
2023/08/25 00:05:41;;;;;;;47.05;29.60;;;18.40;99.90;;;;;;5054643;28;20040;-76
2023/08/25 00:08:07;;;;;;;46.15;31.25;;;18.40;99.90;;;;;;5054367;28;20053;-75
2023/08/25 00:10:34;;;;;;;44.15;32.33;;;18.40;99.90;;;;;;5052706;28;20052;-75
2023/08/25 00:13:00;;;;;;;47.85;32.33;;;18.40;99.90;;;;;;5063780;28;20120;-75
2023/08/25 00:15:26;;;;;;;43.88;31.27;;;18.40;99.90;;;;;;5039201;28;20040;-75
2023/08/25 00:17:54;;;;;;;48.25;30.73;;;18.40;99.90;;;;;;5050271;28;20048;-76
2023/08/25 00:20:20;;;;;;;47.85;31.05;;;18.40;99.90;;;;;;5036451;28;20033;-75
2023/08/25 00:22:46;;;;;;;50.45;31.48;;;18.40;99.90;;;;;;5035533;28;20546;-75
2023/08/25 00:25:12;;;;;;;48.60;31.35;;;18.50;99.90;;;;;;5039651;28;20047;-75
2023/08/25 00:27:38;;;;;;;48.13;32.50;;;18.40;99.90;;;;;;5069369;28;20403;-75
2023/08/25 00:30:04;;;;;;;48.63;32.85;;;18.50;99.90;;;;;;5035202;28;20144;-75
2023/08/25 00:32:30;;;;;;;51.22;32.28;;;18.40;99.90;;;;;;5054055;28;20044;-75
2023/08/25 00:34:56;;;;;;;56.05;35.33;;;18.40;99.90;;;;;;5053455;28;20040;-74
2023/08/25 00:37:21;;;;;;;60.08;35.45;;;18.40;99.90;;;;;;5035231;28;20072;-75
2023/08/25 00:39:49;;;;;;;57.83;36.15;;;18.40;99.90;;;;;;5035559;28;20045;-75
2023/08/25 00:42:15;;;;;;;59.40;37.28;;;18.50;99.90;;;;;;5035656;28;20052;-75
2023/08/25 00:44:41;;;;;;;58.70;37.28;;;18.50;99.90;;;;;;5035094;28;20048;-76
2023/08/25 00:47:06;;;;;;;65.95;38.50;;;18.50;99.90;;;;;;5053205;28;20132;-75
2023/08/25 00:49:33;;;;;;;67.00;39.00;;;18.50;99.90;;;;;;5034945;28;20056;-75
2023/08/25 00:52:00;;;;;;;71.40;39.22;;;18.50;99.90;;;;;;5034727;28;20037;-75
2023/08/25 00:54:28;;;;;;;70.22;40.22;;;18.50;99.90;;;;;;5053592;28;20053;-76
2023/08/25 00:56:54;;;;;;;64.78;40.40;;;18.60;99.90;;;;;;5052785;28;20041;-75
2023/08/25 00:59:20;;;;;;;74.18;41.50;;;18.60;99.90;;;;;;5034986;28;20049;-75
2023/08/25 01:01:47;;;;;;;77.88;43.05;;;18.70;99.90;;;;;;5015735;28;20056;-76
2023/08/25 01:04:13;;;;;;;69.55;41.28;;;18.70;99.90;;;;;;5015365;28;20056;-75
2023/08/25 01:06:39;;;;;;;77.43;42.00;;;18.80;99.90;;;;;;5015485;28;20053;-76
2023/08/25 01:09:10;;;;;;;79.13;42.53;;;18.70;99.90;;;;;;5017138;28;20053;-76
2023/08/25 01:11:55;;;;;;;83.60;43.75;;;18.80;99.90;;;;;;5034282;28;20080;-76
2023/08/25 01:14:41;;;;;;;83.05;43.53;;;18.80;99.90;;;;;;5053336;28;20045;-76
2023/08/25 01:17:26;;;;;;;82.47;43.97;;;18.80;99.90;;;;;;5034352;28;20083;-75
2023/08/25 01:19:55;;;;;;;89.60;44.47;;;18.80;99.90;;;;;;5051830;28;20056;-76
2023/08/25 01:22:49;;;;;;;84.38;45.00;;;18.80;99.90;;;;;;5053020;28;20047;-76
2023/08/25 01:25:28;;;;;;;90.25;44.72;;;18.80;99.90;;;;;;5053305;28;20157;-76
2023/08/25 01:27:58;;;;;;;79.28;42.90;;;18.80;99.90;;;;;;5034247;28;20558;-75
2023/08/25 01:30:37;;;;;;;93.00;45.30;;;18.70;99.90;;;;;;5034831;28;20044;-75
2023/08/25 01:33:04;;;;;;;90.72;47.30;;;18.70;99.90;;;;;;5034422;28;20077;-76
2023/08/25 01:35:41;;;;;;;97.18;47.15;;;18.70;99.90;;;;;;5035277;28;20037;-75
2023/08/25 01:38:16;;;;;;;108.00;50.40;;;18.80;99.90;;;;;;5032605;28;20049;-75
2023/08/25 01:40:47;;;;;;;105.85;50.83;;;18.80;99.90;;;;;;5014496;28;20048;-76
2023/08/25 01:43:17;;;;;;;117.20;52.17;;;18.80;99.90;;;;;;5032983;28;20045;-76
2023/08/25 01:45:43;;;;;;;120.22;56.15;;;18.80;99.90;;;;;;5016187;28;20048;-76
2023/08/25 01:48:14;;;;;;;129.85;55.30;;;18.80;99.90;;;;;;5050701;28;20037;-75
2023/08/25 01:50:40;;;;;;;130.55;58.10;;;18.80;99.90;;;;;;5033851;28;20052;-75
2023/08/25 01:53:08;;;;;;;132.88;58.13;;;18.80;99.90;;;;;;5070786;28;20036;-75
2023/08/25 01:55:34;;;;;;;132.68;57.67;;;18.80;99.90;;;;;;5071838;28;20496;-75
2023/08/25 01:58:01;;;;;;;133.95;58.65;;;18.80;99.90;;;;;;5034350;28;20056;-76
2023/08/25 02:00:27;;;;;;;133.57;57.42;;;18.80;99.90;;;;;;5033896;28;20049;-75
2023/08/25 02:02:52;;;;;;;139.63;59.22;;;18.80;99.90;;;;;;5052310;28;20037;-76
2023/08/25 02:05:18;;;;;;;135.43;58.92;;;18.80;99.90;;;;;;5051304;28;20052;-76
2023/08/25 02:07:44;;;;;;;125.45;57.10;;;18.80;99.90;;;;;;5033437;28;20063;-76
2023/08/25 02:10:10;;;;;;;136.52;60.58;;;18.80;99.90;;;;;;5034515;28;20041;-75
2023/08/25 02:12:35;;;;;;;137.32;59.85;;;18.80;99.90;;;;;;5052499;28;20045;-76
2023/08/25 02:15:01;;;;;;;129.80;56.88;;;18.80;99.90;;;;;;5051244;28;20052;-75
2023/08/25 02:17:27;;;;;;;130.02;58.38;;;18.80;99.90;;;;;;5034225;28;20120;-75
2023/08/25 02:19:52;;;;;;;129.90;60.20;;;18.90;99.90;;;;;;5034027;28;20051;-75
2023/08/25 02:22:18;;;;;;;132.40;58.65;;;18.80;99.90;;;;;;5033708;28;20049;-75
2023/08/25 02:24:44;;;;;;;130.77;60.38;;;18.80;99.90;;;;;;5052195;28;20041;-75
2023/08/25 02:27:09;;;;;;;129.95;58.80;;;18.80;99.90;;;;;;5033705;28;20041;-75
2023/08/25 02:29:35;;;;;;;136.10;59.03;;;18.80;99.90;;;;;;5035934;28;20049;-75
2023/08/25 02:32:02;;;;;;;133.15;59.33;;;18.80;99.90;;;;;;5038043;28;20388;-75
2023/08/25 02:34:28;;;;;;;129.40;58.92;;;18.80;99.90;;;;;;5037604;28;20044;-75
2023/08/25 02:36:54;;;;;;;127.32;56.88;;;18.80;99.90;;;;;;5037538;28;20542;-75
2023/08/25 02:39:20;;;;;;;124.47;58.55;;;18.80;99.90;;;;;;5055784;28;20041;-75
2023/08/25 02:41:45;;;;;;;116.05;56.50;;;18.80;99.90;;;;;;5037933;28;20099;-76
2023/08/25 02:44:11;;;;;;;122.97;55.70;;;18.80;99.90;;;;;;5037493;28;20037;-75
2023/08/25 02:46:37;;;;;;;122.57;57.03;;;18.80;99.90;;;;;;5038162;28;20495;-75
2023/08/25 02:49:03;;;;;;;111.55;56.28;;;18.80;99.90;;;;;;5036784;28;20045;-76
2023/08/25 02:51:29;;;;;;;110.97;53.80;;;18.80;99.90;;;;;;5037269;28;20064;-75
2023/08/25 02:53:54;;;;;;;102.25;54.20;;;18.80;99.90;;;;;;5037877;28;20051;-75
2023/08/25 02:56:20;;;;;;;106.32;54.40;;;18.70;99.90;;;;;;5055499;28;20120;-76
2023/08/25 02:58:46;;;;;;;108.35;56.38;;;18.70;99.90;;;;;;5054480;28;20049;-75
2023/08/25 03:01:12;;;;;;;106.50;53.00;;;18.70;99.90;;;;;;5037520;28;20397;-75
2023/08/25 03:03:38;;;;;;;106.07;54.03;;;18.70;99.90;;;;;;5055276;28;20033;-75
2023/08/25 03:06:04;;;;;;;104.47;53.03;;;18.70;99.90;;;;;;5036525;28;20440;-75
2023/08/25 03:08:30;;;;;;;110.82;55.20;;;18.70;99.90;;;;;;5055214;28;20064;-75
2023/08/25 03:10:55;;;;;;;111.18;55.38;;;18.60;99.90;;;;;;5036677;28;20056;-76
2023/08/25 03:13:21;;;;;;;109.70;54.22;;;18.70;99.90;;;;;;5036882;28;20424;-75
2023/08/25 03:15:52;;;;;;;99.97;50.10;;;18.60;99.90;;;;;;5054795;28;20124;-75
2023/08/25 03:18:17;;;;;;;95.35;50.15;;;18.60;99.90;;;;;;5036853;28;20060;-75
2023/08/25 03:20:43;;;;;;;100.93;54.28;;;18.60;99.90;;;;;;5037639;28;20033;-76
2023/08/25 03:23:08;;;;;;;105.10;52.75;;;18.60;99.90;;;;;;5036415;28;20048;-75
2023/08/25 03:25:38;;;;;;;110.38;55.20;;;18.60;99.90;;;;;;5036153;28;20037;-75
2023/08/25 03:28:04;;;;;;;99.90;51.42;;;18.60;99.90;;;;;;5036957;28;20075;-75
2023/08/25 03:30:29;;;;;;;93.65;51.05;;;18.50;99.90;;;;;;5055264;28;20056;-75
2023/08/25 03:32:55;;;;;;;94.45;49.38;;;18.50;99.90;;;;;;5054127;28;20041;-75
2023/08/25 03:35:21;;;;;;;90.72;50.92;;;18.50;99.90;;;;;;5036989;28;20436;-75
2023/08/25 03:37:46;;;;;;;87.60;48.08;;;18.50;99.90;;;;;;5051744;28;20364;-75
2023/08/25 03:40:12;;;;;;;90.65;49.53;;;18.50;99.90;;;;;;5025767;28;20047;-75
2023/08/25 03:42:38;;;;;;;83.28;48.22;;;18.50;99.90;;;;;;5044850;28;20073;-75
2023/08/25 03:45:05;;;;;;;84.15;48.33;;;18.60;99.90;;;;;;5042978;28;20049;-75
2023/08/25 03:47:31;;;;;;;78.35;46.17;;;18.50;99.90;;;;;;5044216;28;20037;-76
2023/08/25 03:49:57;;;;;;;82.15;47.53;;;18.50;99.90;;;;;;5042593;28;20072;-76
2023/08/25 03:52:23;;;;;;;79.95;45.95;;;18.50;99.90;;;;;;5037256;28;20064;-76
2023/08/25 03:54:48;;;;;;;73.97;45.97;;;18.50;99.90;;;;;;5032914;28;20464;-76
2023/08/25 03:57:14;;;;;;;77.40;46.17;;;18.50;99.90;;;;;;5036399;28;20051;-74
2023/08/25 03:59:40;;;;;;;74.50;45.38;;;18.50;99.90;;;;;;5036209;28;20102;-76
2023/08/25 04:02:09;;;;;;;77.68;44.17;;;18.50;99.90;;;;;;5052941;28;20040;-75
2023/08/25 04:04:35;;;;;;;74.38;45.78;;;18.40;99.90;;;;;;5054470;28;20091;-75
2023/08/25 04:07:00;;;;;;;75.13;44.13;;;18.40;99.90;;;;;;5035563;28;20081;-75
2023/08/25 04:09:26;;;;;;;81.75;47.13;;;18.40;99.90;;;;;;5035981;28;20492;-75
2023/08/25 04:11:54;;;;;;;75.97;44.80;;;18.40;99.90;;;;;;5040964;28;20041;-75
2023/08/25 04:14:20;;;;;;;76.43;44.75;;;18.40;99.90;;;;;;5033932;28;20049;-75
2023/08/25 04:16:45;;;;;;;67.30;43.80;;;18.40;99.90;;;;;;5016301;28;20037;-75
2023/08/25 04:19:13;;;;;;;72.07;45.13;;;18.40;99.90;;;;;;5033961;28;20038;-75
2023/08/25 04:21:39;;;;;;;70.85;43.38;;;18.40;99.90;;;;;;5027812;28;20071;-73
2023/08/25 04:24:05;;;;;;;71.03;44.25;;;18.40;99.90;;;;;;5035514;28;20553;-74
2023/08/25 04:26:30;;;;;;;67.28;42.22;;;18.40;99.90;;;;;;5034963;28;20132;-74
2023/08/25 04:28:56;;;;;;;62.03;41.53;;;18.40;99.90;;;;;;5052832;28;20128;-75
2023/08/25 04:31:22;;;;;;;62.45;40.88;;;18.40;99.90;;;;;;5035825;28;20045;-74
2023/08/25 04:33:47;;;;;;;63.30;41.83;;;18.30;99.90;;;;;;5052833;28;20392;-74
2023/08/25 04:36:14;;;;;;;59.88;41.45;;;18.30;99.90;;;;;;5053069;28;20077;-74
2023/08/25 04:38:39;;;;;;;56.08;38.35;;;18.30;99.90;;;;;;5035534;28;20488;-74
2023/08/25 04:41:05;;;;;;;61.00;40.88;;;18.30;99.90;;;;;;5034286;28;20139;-74
2023/08/25 04:43:31;;;;;;;62.78;41.70;;;18.20;99.90;;;;;;5035075;28;20080;-74
2023/08/25 04:45:56;;;;;;;54.50;39.53;;;18.20;99.90;;;;;;5034925;28;20049;-75
2023/08/25 04:48:22;;;;;;;58.97;40.10;;;18.20;99.90;;;;;;5035368;28;20103;-74
2023/08/25 04:50:49;;;;;;;57.53;40.28;;;18.20;99.90;;;;;;5052292;28;20084;-74
2023/08/25 04:53:14;;;;;;;54.53;37.80;;;18.20;99.90;;;;;;5035219;28;20048;-74
2023/08/25 04:55:40;;;;;;;56.95;37.70;;;18.20;99.90;;;;;;5035505;28;20041;-75
2023/08/25 04:58:05;;;;;;;51.63;36.45;;;18.20;99.90;;;;;;5026847;28;20077;-74
2023/08/25 05:00:31;;;;;;;53.20;37.20;;;18.20;99.90;;;;;;5019025;28;20037;-74
2023/08/25 05:02:57;;;;;;;52.50;37.40;;;18.20;99.90;;;;;;5034695;28;20511;-74
2023/08/25 05:05:22;;;;;;;48.20;36.53;;;18.20;99.90;;;;;;5034635;28;20102;-74
2023/08/25 05:07:48;;;;;;;54.38;37.85;;;18.20;99.90;;;;;;5033471;28;20107;-74
2023/08/25 05:10:14;;;;;;;56.15;39.95;;;18.20;99.90;;;;;;5035208;28;20064;-74
2023/08/25 05:12:42;;;;;;;52.38;39.38;;;18.20;99.90;;;;;;5052524;28;20048;-74
2023/08/25 05:15:08;;;;;;;55.67;38.45;;;18.20;99.90;;;;;;5034740;28;20071;-74
2023/08/25 05:17:34;;;;;;;54.25;38.47;;;18.20;99.90;;;;;;5034324;28;20079;-74
2023/08/25 05:20:00;;;;;;;50.15;38.53;;;18.20;99.90;;;;;;5034707;28;20068;-75
2023/08/25 05:22:25;;;;;;;50.42;36.65;;;18.30;99.90;;;;;;5034426;28;20049;-74
2023/08/25 05:24:54;;;;;;;44.20;36.00;;;18.20;99.90;;;;;;5032116;28;20045;-74
2023/08/25 05:27:20;;;;;;;47.58;33.50;;;18.20;99.90;;;;;;5032668;28;20424;-75
2023/08/25 05:29:45;;;;;;;47.65;33.13;;;18.30;99.90;;;;;;5014709;28;20129;-74
2023/08/25 05:32:11;;;;;;;43.33;32.20;;;18.30;99.90;;;;;;5030266;28;20045;-74
2023/08/25 05:34:37;;;;;;;40.33;31.17;;;18.20;99.90;;;;;;5052940;28;20392;-74
2023/08/25 05:37:02;;;;;;;39.13;32.03;;;18.30;99.90;;;;;;5034115;28;20045;-74
2023/08/25 05:39:28;;;;;;;41.83;30.42;;;18.20;99.90;;;;;;5051924;28;20079;-74
2023/08/25 05:41:54;;;;;;;40.83;31.23;;;18.30;99.90;;;;;;5034608;28;20051;-74
2023/08/25 05:44:19;;;;;;;39.83;31.15;;;18.30;99.90;;;;;;5034220;28;20140;-74
2023/08/25 05:46:47;;;;;;;36.60;27.58;;;18.40;99.90;;;;;;5033986;28;20077;-75
2023/08/25 05:49:13;;;;;;;37.05;25.90;;;18.40;99.90;;;;;;5034099;28;20519;-74
2023/08/25 05:51:39;;;;;;;30.63;25.98;;;18.40;99.90;;;;;;5030948;28;20124;-74
2023/08/25 05:54:04;;;;;;;33.47;26.08;;;18.50;99.90;;;;;;5031570;28;20507;-74
2023/08/25 05:56:30;;;;;;;34.70;24.98;;;18.50;99.90;;;;;;5014861;28;20042;-75
2023/08/25 05:59:00;;;;;;;31.60;24.40;;;18.60;99.90;;;;;;5027604;28;20044;-74
2023/08/25 06:01:25;;;;;;;30.83;23.05;;;18.60;99.90;;;;;;5034228;28;20040;-75
2023/08/25 06:03:51;;;;;;;32.65;24.38;;;18.70;99.90;;;;;;5033448;28;20045;-74
2023/08/25 06:06:17;;;;;;;34.17;24.58;;;18.80;99.90;;;;;;5034166;28;20045;-75
2023/08/25 06:08:42;;;;;;;34.28;24.98;;;18.90;99.90;;;;;;5033004;28;20057;-75
2023/08/25 06:11:08;;;;;;;32.30;23.30;;;19.10;99.90;;;;;;5051961;28;20401;-75
2023/08/25 06:13:34;;;;;;;29.40;22.27;;;19.20;99.90;;;;;;5051969;28;20485;-76
2023/08/25 06:16:00;;;;;;;30.30;23.33;;;19.30;99.90;;;;;;5033398;28;20060;-74
2023/08/25 06:18:25;;;;;;;28.60;22.30;;;19.40;99.90;;;;;;5033895;28;20051;-74
2023/08/25 06:20:51;;;;;;;29.40;22.23;;;19.60;99.90;;;;;;5033572;28;20057;-75
2023/08/25 06:23:17;;;;;;;28.58;21.17;;;19.70;99.90;;;;;;5051404;28;20033;-75
2023/08/25 06:25:44;;;;;;;27.98;21.50;;;19.70;99.90;;;;;;5033769;28;20041;-75
2023/08/25 06:28:09;;;;;;;30.92;23.13;;;19.80;99.90;;;;;;5051474;28;20041;-75
2023/08/25 06:30:38;;;;;;;27.95;22.33;;;19.90;99.90;;;;;;5034471;28;20555;-75
2023/08/25 06:33:04;;;;;;;28.70;21.48;;;19.90;99.90;;;;;;5030791;28;20388;-75
2023/08/25 06:35:29;;;;;;;29.45;21.08;;;19.90;99.90;;;;;;5021769;28;20045;-74
2023/08/25 06:37:55;;;;;;;28.75;21.95;;;19.90;99.90;;;;;;5031825;28;20038;-75
2023/08/25 06:40:21;;;;;;;33.53;22.83;;;20.00;99.90;;;;;;5031622;28;20136;-75
2023/08/25 06:42:46;;;;;;;31.38;21.73;;;19.90;99.90;;;;;;5016929;28;20087;-74
2023/08/25 06:45:12;;;;;;;28.98;20.98;;;19.90;99.90;;;;;;5051513;28;20453;-75
2023/08/25 06:47:38;;;;;;;25.08;20.30;;;19.90;99.90;;;;;;5033640;28;20051;-75
2023/08/25 06:50:05;;;;;;;30.10;22.00;;;19.90;99.90;;;;;;5050857;28;20507;-75
2023/08/25 06:52:31;;;;;;;28.35;21.38;;;20.00;99.90;;;;;;5033959;28;20037;-75
2023/08/25 06:54:57;;;;;;;31.00;21.92;;;20.00;99.90;;;;;;5033497;28;20049;-75
2023/08/25 06:57:23;;;;;;;25.85;20.70;;;19.90;99.90;;;;;;5051436;28;20124;-74
2023/08/25 06:59:50;;;;;;;30.27;21.48;;;20.00;99.90;;;;;;5033958;28;20084;-75
2023/08/25 07:02:16;;;;;;;32.55;21.65;;;19.90;99.90;;;;;;5051625;28;20098;-75
2023/08/25 07:04:42;;;;;;;30.27;20.65;;;20.00;99.90;;;;;;5051123;28;20048;-75
2023/08/25 07:07:08;;;;;;;28.70;20.75;;;20.00;99.90;;;;;;5033363;28;20485;-75
2023/08/25 07:09:35;;;;;;;37.55;22.17;;;20.00;99.90;;;;;;5051567;28;20179;-75
2023/08/25 07:12:00;;;;;;;28.80;20.38;;;20.00;99.90;;;;;;5032663;28;20056;-75
2023/08/25 07:14:29;;;;;;;32.85;21.48;;;20.00;99.90;;;;;;5050498;28;20045;-75
2023/08/25 07:16:54;;;;;;;32.72;20.80;;;20.10;99.90;;;;;;5035069;28;20056;-75
2023/08/25 07:19:20;;;;;;;35.92;20.67;;;20.10;99.90;;;;;;5036061;28;20045;-75
2023/08/25 07:21:45;;;;;;;28.25;19.23;;;20.20;99.90;;;;;;5037357;28;20495;-76
2023/08/25 07:24:11;;;;;;;33.58;20.63;;;20.30;99.90;;;;;;5043166;28;20429;-75
2023/08/25 07:26:37;;;;;;;27.20;19.20;;;20.20;99.90;;;;;;5035256;28;20057;-75
2023/08/25 07:29:02;;;;;;;31.80;20.23;;;20.20;99.90;;;;;;5053812;28;20454;-75
2023/08/25 07:31:28;;;;;;;32.30;20.45;;;20.10;99.90;;;;;;5032956;28;20365;-75
2023/08/25 07:33:54;;;;;;;31.70;20.15;;;20.10;99.90;;;;;;5039603;28;20049;-75
2023/08/25 07:36:19;;;;;;;34.63;20.17;;;20.10;99.90;;;;;;5035503;28;20040;-75
2023/08/25 07:38:45;;;;;;;34.35;21.08;;;20.00;99.90;;;;;;5049374;28;20053;-75
2023/08/25 07:41:17;;;;;;;30.67;20.13;;;20.00;99.90;;;;;;5039780;28;20048;-75
2023/08/25 07:43:43;;;;;;;35.47;21.88;;;20.10;99.90;;;;;;5035520;28;20071;-75
2023/08/25 07:46:09;;;;;;;32.00;21.98;;;20.10;99.90;;;;;;5019583;28;20069;-75
2023/08/25 07:48:34;;;;;;;33.25;21.60;;;20.20;99.90;;;;;;5021055;28;20053;-76
2023/08/25 07:51:00;;;;;;;29.20;20.40;;;20.50;99.90;;;;;;5039759;28;20055;-75
2023/08/25 07:53:26;;;;;;;30.25;21.38;;;20.80;99.90;;;;;;5042099;28;20473;-75
2023/08/25 07:55:51;;;;;;;29.38;19.65;;;21.00;99.90;;;;;;5054583;28;20488;-76
2023/08/25 07:58:21;;;;;;;31.48;20.08;;;21.20;99.90;;;;;;5052209;28;20064;-76
2023/08/25 08:00:47;;;;;;;28.85;20.63;;;21.40;99.90;;;;;;5033983;28;20067;-76
2023/08/25 08:03:14;;;;;;;30.35;20.30;;;21.70;99.90;;;;;;5052420;28;20055;-75
2023/08/25 08:05:40;;;;;;;28.58;19.45;;;21.80;99.90;;;;;;5033734;28;20045;-74
2023/08/25 08:08:09;;;;;;;28.15;18.52;;;21.90;99.90;;;;;;5032936;28;20889;-74
2023/08/25 08:10:35;;;;;;;30.17;19.38;;;22.00;99.90;;;;;;5052245;28;20097;-74
2023/08/25 08:13:02;;;;;;;32.15;19.83;;;22.10;99.90;;;;;;5052719;28;20045;-74
2023/08/25 08:15:27;;;;;;;31.88;19.33;;;22.20;99.90;;;;;;5053252;28;20041;-75
2023/08/25 08:17:53;;;;;;;27.75;17.90;;;22.30;99.90;;;;;;5035648;28;20041;-75
2023/08/25 08:20:19;;;;;;;27.08;18.35;;;22.40;99.90;;;;;;5034620;28;20071;-74
2023/08/25 08:22:45;;;;;;;27.38;19.25;;;22.50;99.90;;;;;;5054301;28;20064;-75
2023/08/25 08:25:11;;;;;;;27.95;19.15;;;22.50;99.90;;;;;;5034533;28;20040;-75
2023/08/25 08:27:39;;;;;;;28.00;18.58;;;22.80;99.90;;;;;;5049951;28;20041;-74
2023/08/25 08:30:05;;;;;;;31.00;18.65;;;22.90;99.90;;;;;;5033671;28;20456;-75
2023/08/25 08:32:31;;;;;;;26.70;18.30;;;23.10;99.90;;;;;;5019614;28;20045;-75
2023/08/25 08:34:57;;;;;;;27.42;18.33;;;23.20;99.90;;;;;;5033187;28;20035;-75
2023/08/25 08:37:22;;;;;;;29.88;18.38;;;23.30;99.90;;;;;;5033687;28;20496;-75
2023/08/25 08:39:48;;;;;;;26.75;17.98;;;23.40;99.90;;;;;;5015769;28;20046;-74
2023/08/25 08:42:14;;;;;;;29.10;17.63;;;23.40;99.90;;;;;;5024447;28;20516;-75
2023/08/25 08:44:46;;;;;;;23.05;17.73;;;23.50;99.90;;;;;;5034905;28;20049;-75
2023/08/25 08:47:13;;;;;;;24.48;17.40;;;23.50;99.90;;;;;;5035758;28;20473;-75
2023/08/25 08:49:40;;;;;;;27.13;17.73;;;23.60;99.90;;;;;;5034433;28;20063;-75
2023/08/25 08:52:07;;;;;;;26.95;17.40;;;23.70;99.90;;;;;;5052621;28;20045;-74
2023/08/25 08:54:35;;;;;;;23.98;17.08;;;23.70;99.90;;;;;;5052750;28;20090;-74
2023/08/25 08:57:01;;;;;;;22.00;17.35;;;23.40;99.90;;;;;;5030186;28;20392;-74
2023/08/25 08:59:26;;;;;;;26.85;17.67;;;23.30;99.90;;;;;;5044305;28;20052;-71
2023/08/25 09:01:54;;;;;;;22.90;16.17;;;23.10;99.90;;;;;;5019006;28;20044;-74
2023/08/25 09:04:21;;;;;;;23.70;16.80;;;23.00;99.90;;;;;;5032803;28;20041;-74
2023/08/25 09:06:51;;;;;;;23.23;17.40;;;22.90;99.90;;;;;;5026818;28;20041;-74
2023/08/25 09:09:19;;;;;;;25.25;17.83;;;22.80;99.90;;;;;;5070588;28;20071;-73
2023/08/25 09:11:48;;;;;;;26.00;18.35;;;22.80;99.90;;;;;;5070003;28;20088;-73
2023/08/25 09:14:28;;;;;;;23.33;17.67;;;22.80;99.90;;;;;;5051761;28;20053;-73
2023/08/25 09:17:01;;;;;;;24.55;17.92;;;22.90;99.90;;;;;;5039704;28;20049;-76
2023/08/25 09:19:33;;;;;;;28.35;18.50;;;22.80;99.90;;;;;;5062689;28;20079;-77
2023/08/25 09:22:01;;;;;;;23.50;16.83;;;22.80;99.90;;;;;;5050337;28;20048;-77
2023/08/25 09:24:28;;;;;;;25.98;17.40;;;22.90;99.90;;;;;;5032528;28;20094;-78
2023/08/25 09:26:54;;;;;;;26.13;17.63;;;23.00;99.90;;;;;;5051600;28;20048;-79
2023/08/25 09:29:22;;;;;;;22.67;16.00;;;23.00;99.90;;;;;;5033944;28;20056;-76
2023/08/25 09:31:48;;;;;;;24.75;16.63;;;23.40;99.90;;;;;;5032934;28;20052;-77
2023/08/25 09:34:14;;;;;;;25.65;16.13;;;23.70;99.90;;;;;;5034901;28;20037;-77
2023/08/25 09:36:51;;;;;;;21.08;16.13;;;23.70;99.90;;;;;;5033028;28;20383;-78
2023/08/25 09:39:16;;;;;;;23.33;16.10;;;23.90;99.90;;;;;;5056516;28;20045;-77
2023/08/25 09:41:44;;;;;;;21.00;15.07;;;24.00;99.90;;;;;;5054015;28;20402;-76
2023/08/25 09:44:10;;;;;;;24.55;14.88;;;24.20;99.90;;;;;;5071610;28;20049;-75
2023/08/25 09:46:36;;;;;;;24.77;16.33;;;24.20;99.90;;;;;;5071361;28;20032;-77
2023/08/25 09:49:09;;;;;;;21.13;15.45;;;24.10;99.90;;;;;;5058298;28;20381;-74
2023/08/25 09:51:37;;;;;;;23.17;15.98;;;24.20;99.90;;;;;;5071854;28;20094;-73
2023/08/25 09:54:23;;;;;;;20.63;15.15;;;24.40;99.90;;;;;;5052697;28;20040;-74
2023/08/25 09:56:48;;;;;;;21.63;13.68;;;25.00;99.90;;;;;;5052810;28;20131;-76
2023/08/25 09:59:15;;;;;;;19.25;13.07;;;25.50;99.90;;;;;;5057807;28;20552;-74
2023/08/25 10:01:43;;;;;;;18.98;13.70;;;25.50;99.90;;;;;;5036365;28;20037;-74
2023/08/25 10:04:09;;;;;;;19.25;14.40;;;25.40;99.90;;;;;;5037186;28;20041;-74
2023/08/25 10:06:39;;;;;;;16.08;12.77;;;25.30;99.90;;;;;;5032485;28;20051;-73
2023/08/25 10:09:06;;;;;;;18.23;12.55;;;25.00;99.90;;;;;;5030099;28;20045;-74
2023/08/25 10:11:40;;;;;;;16.73;12.43;;;24.80;99.90;;;;;;5020840;28;20033;-74
2023/08/25 10:14:07;;;;;;;16.88;11.73;;;24.60;99.90;;;;;;5039712;28;20652;-76
2023/08/25 10:16:54;;;;;;;15.10;11.90;;;24.40;99.90;;;;;;5026243;28;20124;-77
2023/08/25 10:19:27;;;;;;;17.13;12.52;;;23.90;99.90;;;;;;5030539;28;20406;-76
2023/08/25 10:21:54;;;;;;;18.13;12.13;;;23.60;99.90;;;;;;5013851;28;20049;-75
2023/08/25 10:24:21;;;;;;;16.23;12.13;;;23.40;99.90;;;;;;5038103;28;20036;-74
2023/08/25 10:26:49;;;;;;;15.93;12.23;;;23.30;99.90;;;;;;5033363;28;20048;-74
2023/08/25 10:29:20;;;;;;;20.80;13.18;;;23.10;99.90;;;;;;5051549;28;20044;-74
2023/08/25 10:31:51;;;;;;;16.67;12.88;;;23.00;99.90;;;;;;5034028;28;20041;-76
2023/08/25 10:34:42;;;;;;;17.63;12.63;;;22.90;99.90;;;;;;5033722;28;20049;-75
2023/08/25 10:37:23;;;;;;;16.33;12.52;;;22.80;99.90;;;;;;5033447;28;20080;-75
2023/08/25 10:39:49;;;;;;;16.38;11.57;;;22.70;99.90;;;;;;5051346;28;20048;-75
2023/08/25 10:42:44;;;;;;;18.48;12.40;;;22.60;99.90;;;;;;5051478;28;20194;-75
2023/08/25 10:45:11;;;;;;;17.52;11.60;;;22.70;99.90;;;;;;5042236;28;20045;-75
2023/08/25 10:47:47;;;;;;;20.08;11.27;;;22.90;99.90;;;;;;5044193;28;20049;-73
2023/08/25 10:50:19;;;;;;;16.40;11.77;;;23.00;99.90;;;;;;5073017;28;20080;-75
2023/08/25 10:52:47;;;;;;;17.02;11.18;;;23.00;99.90;;;;;;5075199;28;20040;-75
2023/08/25 10:55:22;;;;;;;17.95;11.88;;;23.00;99.90;;;;;;5053293;28;20041;-75
2023/08/25 10:57:50;;;;;;;16.37;11.07;;;23.10;99.90;;;;;;5035953;28;20059;-78
2023/08/25 11:00:33;;;;;;;16.85;11.82;;;23.10;99.90;;;;;;5037377;28;20044;-79
2023/08/25 11:03:01;;;;;;;18.75;12.10;;;23.10;99.90;;;;;;5036452;28;20045;-79
2023/08/25 11:05:31;;;;;;;16.42;11.35;;;23.30;99.90;;;;;;5055077;28;20033;-77
2023/08/25 11:08:01;;;;;;;16.38;10.80;;;23.60;99.90;;;;;;5053674;28;20053;-77
2023/08/25 11:10:30;;;;;;;15.05;12.20;;;23.90;99.90;;;;;;5034996;28;20135;-74
2023/08/25 11:12:57;;;;;;;14.57;11.75;;;24.30;99.90;;;;;;5047923;28;20124;-75
2023/08/25 11:15:23;;;;;;;15.68;11.88;;;24.90;99.90;;;;;;5038435;28;20466;-75
2023/08/25 11:17:49;;;;;;;17.55;11.02;;;25.40;99.90;;;;;;5036174;28;20045;-75
2023/08/25 11:20:16;;;;;;;12.75;10.95;;;25.90;99.90;;;;;;5036712;28;20162;-77
2023/08/25 11:22:52;;;;;;;18.85;11.02;;;26.60;99.90;;;;;;5037062;28;20048;-77
2023/08/25 11:25:18;;;;;;;19.48;11.55;;;26.80;99.90;;;;;;5035083;28;20503;-76
2023/08/25 11:27:48;;;;;;;18.92;11.88;;;26.30;99.90;;;;;;5036157;28;20049;-77
2023/08/25 11:30:15;;;;;;;15.00;11.48;;;26.10;99.90;;;;;;5036668;28;20087;-76
2023/08/25 11:32:40;;;;;;;14.15;10.35;;;25.80;99.90;;;;;;5036972;28;20079;-76
2023/08/25 11:35:08;;;;;;;14.48;10.07;;;25.60;99.90;;;;;;5036124;28;20076;-76
2023/08/25 11:37:34;;;;;;;12.82;10.10;;;25.60;99.90;;;;;;5054144;28;20392;-76
2023/08/25 11:40:00;;;;;;;15.63;10.32;;;25.50;99.90;;;;;;5036790;28;20045;-76
2023/08/25 11:42:26;;;;;;;15.13;10.65;;;25.40;99.90;;;;;;5036459;28;20055;-75
2023/08/25 11:44:52;;;;;;;15.75;11.15;;;25.50;99.90;;;;;;5036008;28;20033;-76
2023/08/25 11:47:21;;;;;;;13.65;10.35;;;25.80;99.90;;;;;;5054539;28;20119;-76
2023/08/25 11:49:48;;;;;;;13.65;10.70;;;26.70;99.90;;;;;;5032938;28;20132;-76
2023/08/25 11:52:15;;;;;;;13.48;10.15;;;27.40;99.90;;;;;;5034387;28;20471;-76
2023/08/25 11:54:48;;;;;;;15.77;11.30;;;28.10;99.90;;;;;;5017362;28;20120;-76
2023/08/25 11:57:14;;;;;;;16.25;11.27;;;28.20;99.90;;;;;;5019564;28;20044;-75
2023/08/25 11:59:41;;;;;;;15.23;11.35;;;28.00;99.90;;;;;;5053902;28;20404;-75
2023/08/25 12:02:07;;;;;;;15.82;11.13;;;27.40;99.90;;;;;;5035300;28;20063;-74
2023/08/25 12:04:33;;;;;;;15.82;11.40;;;27.00;99.90;;;;;;5036427;28;20072;-77
2023/08/25 12:07:01;;;;;;;15.63;11.57;;;26.70;99.90;;;;;;5034891;28;20107;-77
2023/08/25 12:09:27;;;;;;;14.95;11.05;;;26.50;99.90;;;;;;5035069;28;20045;-78
2023/08/25 12:11:54;;;;;;;15.00;11.73;;;26.50;99.90;;;;;;5051087;28;20041;-77
2023/08/25 12:14:27;;;;;;;13.20;11.10;;;26.30;99.90;;;;;;5032224;28;20037;-77
2023/08/25 12:16:54;;;;;;;13.90;11.20;;;26.40;99.90;;;;;;5026995;28;20075;-76
2023/08/25 12:19:23;;;;;;;17.75;11.18;;;26.50;99.90;;;;;;5030269;28;20076;-79
2023/08/25 12:21:56;;;;;;;13.48;10.88;;;26.50;99.90;;;;;;5016656;28;20046;-80
2023/08/25 12:24:26;;;;;;;15.60;11.10;;;26.50;99.90;;;;;;5024366;28;20097;-77
2023/08/25 12:26:51;;;;;;;15.20;10.40;;;26.20;99.90;;;;;;5025304;28;20051;-77